sensor_id;sensor_type;location;lat;lon;timestamp;pressure;altitude;pressure_sealevel;temperature;humidity
65276;BME280;51875;49.994;14.052;2022-10-22T00:01:08;98118.59;;;8.97;100.00
65276;BME280;51875;49.994;14.052;2022-10-22T00:02:27;98110.63;;;9.01;100.00
65276;BME280;51875;49.994;14.052;2022-10-22T00:03:43;98107.94;;;9.04;100.00
65276;BME280;51875;49.994;14.052;2022-10-22T00:04:59;98109.59;;;9.07;100.00
65276;BME280;51875;49.994;14.052;2022-10-22T00:06:14;98112.38;;;9.01;100.00
65276;BME280;51875;49.994;14.052;2022-10-22T00:07:30;98105.88;;;8.83;100.00
65276;BME280;51875;49.994;14.052;2022-10-22T00:08:45;98103.34;;;8.80;100.00
65276;BME280;51875;49.994;14.052;2022-10-22T00:10:02;98108.47;;;8.84;100.00
65276;BME280;51875;49.994;14.052;2022-10-22T00:11:19;98106.69;;;8.85;100.00
65276;BME280;51875;49.994;14.052;2022-10-22T00:12:34;98108.94;;;8.99;100.00
65276;BME280;51875;49.994;14.052;2022-10-22T00:13:50;98109.66;;;9.04;100.00
65276;BME280;51875;49.994;14.052;2022-10-22T00:15:06;98105.31;;;9.04;100.00
65276;BME280;51875;49.994;14.052;2022-10-22T00:16:22;98104.66;;;8.96;100.00
65276;BME280;51875;49.994;14.052;2022-10-22T00:17:37;98106.44;;;8.96;100.00
65276;BME280;51875;49.994;14.052;2022-10-22T00:18:53;98109.88;;;8.96;100.00
65276;BME280;51875;49.994;14.052;2022-10-22T00:20:09;98110.53;;;9.04;100.00
65276;BME280;51875;49.994;14.052;2022-10-22T00:21:24;98114.69;;;9.12;100.00
65276;BME280;51875;49.994;14.052;2022-10-22T00:22:43;98114.19;;;8.97;100.00
65276;BME280;51875;49.994;14.052;2022-10-22T00:23:58;98109.38;;;8.83;100.00
65276;BME280;51875;49.994;14.052;2022-10-22T00:25:14;98111.91;;;8.85;100.00
65276;BME280;51875;49.994;14.052;2022-10-22T00:26:30;98113.81;;;8.78;100.00
65276;BME280;51875;49.994;14.052;2022-10-22T00:27:45;98114.72;;;8.77;100.00
65276;BME280;51875;49.994;14.052;2022-10-22T00:29:01;98106.88;;;8.79;100.00
65276;BME280;51875;49.994;14.052;2022-10-22T00:30:17;98105.97;;;8.80;100.00
65276;BME280;51875;49.994;14.052;2022-10-22T00:31:32;98106.16;;;8.72;100.00
65276;BME280;51875;49.994;14.052;2022-10-22T00:32:48;98103.84;;;8.94;100.00
65276;BME280;51875;49.994;14.052;2022-10-22T00:34:04;98098.50;;;8.99;100.00
65276;BME280;51875;49.994;14.052;2022-10-22T00:35:19;98108.84;;;9.02;100.00
65276;BME280;51875;49.994;14.052;2022-10-22T00:36:35;98111.44;;;9.03;100.00
65276;BME280;51875;49.994;14.052;2022-10-22T00:37:50;98117.81;;;8.93;100.00
65276;BME280;51875;49.994;14.052;2022-10-22T00:39:06;98126.88;;;8.78;100.00
65276;BME280;51875;49.994;14.052;2022-10-22T00:40:22;98126.19;;;8.71;100.00
65276;BME280;51875;49.994;14.052;2022-10-22T00:41:38;98128.25;;;8.58;100.00
65276;BME280;51875;49.994;14.052;2022-10-22T00:42:54;98129.78;;;8.66;100.00
65276;BME280;51875;49.994;14.052;2022-10-22T00:46:02;98126.88;;;8.78;100.00
65276;BME280;51875;49.994;14.052;2022-10-22T00:47:18;98131.34;;;8.74;100.00
65276;BME280;51875;49.994;14.052;2022-10-22T00:48:34;98123.75;;;8.98;100.00
65276;BME280;51875;49.994;14.052;2022-10-22T00:49:50;98117.00;;;8.91;100.00
65276;BME280;51875;49.994;14.052;2022-10-22T00:51:07;98128.22;;;8.95;100.00
65276;BME280;51875;49.994;14.052;2022-10-22T00:52:23;98131.63;;;8.97;100.00
65276;BME280;51875;49.994;14.052;2022-10-22T00:54:02;98134.56;;;8.84;100.00
65276;BME280;51875;49.994;14.052;2022-10-22T00:55:19;98138.41;;;9.04;100.00
65276;BME280;51875;49.994;14.052;2022-10-22T00:56:36;98131.38;;;9.06;100.00
65276;BME280;51875;49.994;14.052;2022-10-22T00:57:53;98131.34;;;9.08;100.00
65276;BME280;51875;49.994;14.052;2022-10-22T00:59:11;98130.63;;;9.02;100.00
65276;BME280;51875;49.994;14.052;2022-10-22T01:00:27;98125.34;;;9.04;100.00
65276;BME280;51875;49.994;14.052;2022-10-22T01:01:43;98123.63;;;9.03;100.00
65276;BME280;51875;49.994;14.052;2022-10-22T01:02:59;98121.47;;;8.86;100.00
65276;BME280;51875;49.994;14.052;2022-10-22T01:04:15;98114.22;;;8.62;100.00
65276;BME280;51875;49.994;14.052;2022-10-22T01:05:40;98108.88;;;8.69;100.00
65276;BME280;51875;49.994;14.052;2022-10-22T01:06:57;98103.66;;;8.69;100.00
65276;BME280;51875;49.994;14.052;2022-10-22T01:13:13;98094.41;;;8.55;100.00
65276;BME280;51875;49.994;14.052;2022-10-22T01:16:10;98079.56;;;8.57;100.00
65276;BME280;51875;49.994;14.052;2022-10-22T01:17:38;98080.03;;;8.73;100.00
65276;BME280;51875;49.994;14.052;2022-10-22T01:18:58;98084.75;;;8.92;100.00
65276;BME280;51875;49.994;14.052;2022-10-22T01:21:56;98081.16;;;8.96;100.00
65276;BME280;51875;49.994;14.052;2022-10-22T01:26:43;98074.25;;;8.62;100.00
65276;BME280;51875;49.994;14.052;2022-10-22T01:30:04;98079.84;;;8.45;100.00
65276;BME280;51875;49.994;14.052;2022-10-22T01:31:22;98079.97;;;8.75;100.00
65276;BME280;51875;49.994;14.052;2022-10-22T01:32:47;98078.13;;;8.80;100.00
65276;BME280;51875;49.994;14.052;2022-10-22T01:34:05;98069.94;;;8.93;100.00
65276;BME280;51875;49.994;14.052;2022-10-22T01:35:26;98075.06;;;8.62;100.00
65276;BME280;51875;49.994;14.052;2022-10-22T01:36:43;98075.41;;;8.48;100.00
65276;BME280;51875;49.994;14.052;2022-10-22T01:38:02;98068.16;;;8.25;100.00
65276;BME280;51875;49.994;14.052;2022-10-22T01:39:19;98071.72;;;8.21;100.00
65276;BME280;51875;49.994;14.052;2022-10-22T01:40:38;98071.00;;;8.16;100.00
65276;BME280;51875;49.994;14.052;2022-10-22T01:41:55;98067.50;;;8.53;100.00
65276;BME280;51875;49.994;14.052;2022-10-22T01:43:11;98070.72;;;8.63;100.00
65276;BME280;51875;49.994;14.052;2022-10-22T01:44:29;98070.72;;;8.63;100.00
65276;BME280;51875;49.994;14.052;2022-10-22T01:45:48;98074.19;;;8.64;100.00
65276;BME280;51875;49.994;14.052;2022-10-22T01:47:38;98080.78;;;8.77;100.00
65276;BME280;51875;49.994;14.052;2022-10-22T01:49:32;98084.97;;;8.84;100.00
65276;BME280;51875;49.994;14.052;2022-10-22T01:54:30;98075.69;;;8.72;100.00
65276;BME280;51875;49.994;14.052;2022-10-22T01:57:58;98079.91;;;8.78;100.00
65276;BME280;51875;49.994;14.052;2022-10-22T01:59:37;98072.94;;;8.79;100.00
65276;BME280;51875;49.994;14.052;2022-10-22T02:01:04;98073.44;;;8.92;100.00
65276;BME280;51875;49.994;14.052;2022-10-22T02:05:47;98055.56;;;8.43;100.00
65276;BME280;51875;49.994;14.052;2022-10-22T02:07:05;98054.56;;;8.47;100.00
65276;BME280;51875;49.994;14.052;2022-10-22T02:08:24;98054.88;;;8.71;100.00
65276;BME280;51875;49.994;14.052;2022-10-22T02:09:42;98062.47;;;8.80;100.00
65276;BME280;51875;49.994;14.052;2022-10-22T02:10:59;98070.16;;;8.85;100.00
65276;BME280;51875;49.994;14.052;2022-10-22T02:12:16;98068.34;;;8.87;100.00
65276;BME280;51875;49.994;14.052;2022-10-22T02:13:38;98068.63;;;8.76;100.00
65276;BME280;51875;49.994;14.052;2022-10-22T02:14:56;98068.69;;;8.74;100.00
65276;BME280;51875;49.994;14.052;2022-10-22T02:16:27;98069.19;;;8.89;100.00
65276;BME280;51875;49.994;14.052;2022-10-22T02:17:46;98061.94;;;8.66;100.00
65276;BME280;51875;49.994;14.052;2022-10-22T02:19:06;98061.59;;;8.80;100.00
65276;BME280;51875;49.994;14.052;2022-10-22T02:20:27;98061.94;;;8.66;100.00
65276;BME280;51875;49.994;14.052;2022-10-22T02:21:43;98063.91;;;8.57;100.00
65276;BME280;51875;49.994;14.052;2022-10-22T02:22:59;98076.34;;;8.46;100.00
65276;BME280;51875;49.994;14.052;2022-10-22T02:24:16;98069.88;;;8.62;100.00
65276;BME280;51875;49.994;14.052;2022-10-22T02:25:35;98077.06;;;8.86;100.00
65276;BME280;51875;49.994;14.052;2022-10-22T02:27:26;98068.50;;;8.82;100.00
65276;BME280;51875;49.994;14.052;2022-10-22T02:28:52;98068.19;;;8.93;100.00
65276;BME280;51875;49.994;14.052;2022-10-22T02:30:15;98074.31;;;8.92;100.00
65276;BME280;51875;49.994;14.052;2022-10-22T02:31:36;98076.31;;;8.82;100.00
65276;BME280;51875;49.994;14.052;2022-10-22T02:33:05;98080.78;;;8.77;100.00
65276;BME280;51875;49.994;14.052;2022-10-22T02:34:24;98080.03;;;8.73;100.00
65276;BME280;51875;49.994;14.052;2022-10-22T02:35:40;98075.44;;;8.82;100.00
65276;BME280;51875;49.994;14.052;2022-10-22T02:36:58;98062.72;;;8.69;100.00
65276;BME280;51875;49.994;14.052;2022-10-22T02:38:15;98056.50;;;8.75;100.00
65276;BME280;51875;49.994;14.052;2022-10-22T02:39:32;98055.34;;;8.85;100.00
65276;BME280;51875;49.994;14.052;2022-10-22T02:40:48;98052.75;;;8.85;100.00
65276;BME280;51875;49.994;14.052;2022-10-22T02:42:04;98064.63;;;8.62;100.00
65276;BME280;51875;49.994;14.052;2022-10-22T02:43:19;98070.84;;;8.58;100.00
65276;BME280;51875;49.994;14.052;2022-10-22T02:44:35;98075.38;;;8.52;100.00
65276;BME280;51875;49.994;14.052;2022-10-22T02:45:51;98073.72;;;8.47;100.00
65276;BME280;51875;49.994;14.052;2022-10-22T02:47:06;98075.88;;;8.65;100.00
65276;BME280;51875;49.994;14.052;2022-10-22T02:48:22;98075.75;;;8.71;100.00
65276;BME280;51875;49.994;14.052;2022-10-22T02:49:37;98080.56;;;8.86;100.00
65276;BME280;51875;49.994;14.052;2022-10-22T02:50:53;98076.34;;;8.81;100.00
65276;BME280;51875;49.994;14.052;2022-10-22T02:52:09;98080.75;;;8.79;100.00
65276;BME280;51875;49.994;14.052;2022-10-22T02:53:24;98091.03;;;8.85;100.00
65276;BME280;51875;49.994;14.052;2022-10-22T02:54:40;98089.19;;;8.88;100.00
65276;BME280;51875;49.994;14.052;2022-10-22T02:55:55;98093.91;;;8.75;100.00
65276;BME280;51875;49.994;14.052;2022-10-22T02:57:11;98089.50;;;8.78;100.00
65276;BME280;51875;49.994;14.052;2022-10-22T02:58:27;98096.19;;;8.88;100.00
65276;BME280;51875;49.994;14.052;2022-10-22T02:59:42;98096.13;;;8.89;100.00
65276;BME280;51875;49.994;14.052;2022-10-22T03:00:58;98093.16;;;9.03;100.00
65276;BME280;51875;49.994;14.052;2022-10-22T03:02:13;98097.41;;;9.06;100.00
65276;BME280;51875;49.994;14.052;2022-10-22T03:03:29;98081.28;;;8.92;100.00
65276;BME280;51875;49.994;14.052;2022-10-22T03:04:45;98094.50;;;8.85;100.00
65276;BME280;51875;49.994;14.052;2022-10-22T03:06:00;98094.72;;;8.78;100.00
65276;BME280;51875;49.994;14.052;2022-10-22T03:07:16;98096.84;;;8.61;100.00
65276;BME280;51875;49.994;14.052;2022-10-22T03:08:31;98104.59;;;8.65;100.00
65276;BME280;51875;49.994;14.052;2022-10-22T03:09:47;98092.13;;;8.76;100.00
65276;BME280;51875;49.994;14.052;2022-10-22T03:11:02;98091.91;;;8.85;100.00
65276;BME280;51875;49.994;14.052;2022-10-22T03:12:18;98091.03;;;8.85;100.00
65276;BME280;51875;49.994;14.052;2022-10-22T03:13:34;98085.78;;;8.86;100.00
65276;BME280;51875;49.994;14.052;2022-10-22T03:14:49;98093.09;;;8.73;100.00
65276;BME280;51875;49.994;14.052;2022-10-22T03:16:05;98089.91;;;8.94;100.00
65276;BME280;51875;49.994;14.052;2022-10-22T03:17:21;98082.06;;;8.95;100.00
65276;BME280;51875;49.994;14.052;2022-10-22T03:18:36;98087.06;;;9.03;100.00
65276;BME280;51875;49.994;14.052;2022-10-22T03:19:52;98083.47;;;9.07;100.00
65276;BME280;51875;49.994;14.052;2022-10-22T03:21:36;98087.16;;;9.00;100.00
65276;BME280;51875;49.994;14.052;2022-10-22T03:22:54;98096.88;;;8.95;100.00
65276;BME280;51875;49.994;14.052;2022-10-22T03:24:47;98107.34;;;8.93;100.00
65276;BME280;51875;49.994;14.052;2022-10-22T03:25:54;98110.66;;;9.00;100.00
65276;BME280;51875;49.994;14.052;2022-10-22T03:27:11;98112.34;;;9.02;100.00
65276;BME280;51875;49.994;14.052;2022-10-22T03:28:27;98111.25;;;9.10;100.00
65276;BME280;51875;49.994;14.052;2022-10-22T03:29:43;98102.84;;;8.98;100.00
65276;BME280;51875;49.994;14.052;2022-10-22T03:31:01;98093.50;;;8.91;100.00
65276;BME280;51875;49.994;14.052;2022-10-22T03:32:16;98096.03;;;8.59;100.00
65276;BME280;51875;49.994;14.052;2022-10-22T03:33:32;98087.91;;;8.72;100.00
65276;BME280;51875;49.994;14.052;2022-10-22T03:34:48;98082.56;;;8.76;100.00
65276;BME280;51875;49.994;14.052;2022-10-22T03:36:05;98078.66;;;8.92;100.00
65276;BME280;51875;49.994;14.052;2022-10-22T03:37:21;98075.50;;;8.80;100.00
65276;BME280;51875;49.994;14.052;2022-10-22T03:38:38;98071.03;;;8.84;100.00
65276;BME280;51875;49.994;14.052;2022-10-22T03:39:54;98078.19;;;8.77;100.00
65276;BME280;51875;49.994;14.052;2022-10-22T03:41:10;98082.69;;;8.72;100.00
65276;BME280;51875;49.994;14.052;2022-10-22T03:42:26;98091.63;;;8.61;100.00
65276;BME280;51875;49.994;14.052;2022-10-22T03:43:42;98088.31;;;8.89;100.00
65276;BME280;51875;49.994;14.052;2022-10-22T03:44:57;98086.16;;;9.04;100.00
65276;BME280;51875;49.994;14.052;2022-10-22T03:46:13;98099.41;;;8.98;100.00
65276;BME280;51875;49.994;14.052;2022-10-22T03:47:28;98112.88;;;8.82;100.00
65276;BME280;51875;49.994;14.052;2022-10-22T03:48:44;98116.00;;;8.95;100.00
65276;BME280;51875;49.994;14.052;2022-10-22T03:50:00;98120.00;;;9.09;100.00
65276;BME280;51875;49.994;14.052;2022-10-22T03:51:15;98105.25;;;9.06;100.00
65276;BME280;51875;49.994;14.052;2022-10-22T03:52:35;98103.22;;;9.17;100.00
65276;BME280;51875;49.994;14.052;2022-10-22T03:53:51;98114.59;;;9.15;100.00
65276;BME280;51875;49.994;14.052;2022-10-22T03:55:07;98119.81;;;9.15;100.00
65276;BME280;51875;49.994;14.052;2022-10-22T03:56:23;98127.41;;;9.24;100.00
65276;BME280;51875;49.994;14.052;2022-10-22T03:57:38;98124.06;;;9.19;100.00
65276;BME280;51875;49.994;14.052;2022-10-22T03:58:56;98111.06;;;9.17;100.00
65276;BME280;51875;49.994;14.052;2022-10-22T04:00:12;98105.81;;;9.17;100.00
65276;BME280;51875;49.994;14.052;2022-10-22T04:01:29;98110.28;;;9.14;100.00
65276;BME280;51875;49.994;14.052;2022-10-22T04:02:44;98112.59;;;9.25;100.00
65276;BME280;51875;49.994;14.052;2022-10-22T04:04:00;98120.09;;;9.06;100.00
65276;BME280;51875;49.994;14.052;2022-10-22T04:05:16;98127.72;;;9.13;100.00
65276;BME280;51875;49.994;14.052;2022-10-22T04:06:31;98126.56;;;8.90;100.00
65276;BME280;51875;49.994;14.052;2022-10-22T04:07:47;98124.31;;;8.76;100.00
65276;BME280;51875;49.994;14.052;2022-10-22T04:09:02;98124.63;;;8.99;100.00
65276;BME280;51875;49.994;14.052;2022-10-22T04:10:18;98121.06;;;9.01;100.00
65276;BME280;51875;49.994;14.052;2022-10-22T04:11:34;98122.72;;;9.04;100.00
65276;BME280;51875;49.994;14.052;2022-10-22T04:12:49;98127.81;;;9.10;100.00
65276;BME280;51875;49.994;14.052;2022-10-22T04:14:05;98130.03;;;8.91;100.00
65276;BME280;51875;49.994;14.052;2022-10-22T04:15:21;98132.25;;;9.07;100.00
65276;BME280;51875;49.994;14.052;2022-10-22T04:16:38;98129.44;;;9.13;100.00
65276;BME280;51875;49.994;14.052;2022-10-22T04:17:54;98133.88;;;9.11;100.00
65276;BME280;51875;49.994;14.052;2022-10-22T04:19:10;98142.19;;;8.92;100.00
65276;BME280;51875;49.994;14.052;2022-10-22T04:20:26;98142.91;;;8.99;100.00
65276;BME280;51875;49.994;14.052;2022-10-22T04:21:41;98149.81;;;9.01;100.00
65276;BME280;51875;49.994;14.052;2022-10-22T04:22:56;98143.72;;;9.01;100.00
65276;BME280;51875;49.994;14.052;2022-10-22T04:24:12;98142.47;;;9.14;100.00
65276;BME280;51875;49.994;14.052;2022-10-22T04:25:28;98137.16;;;9.17;100.00
65276;BME280;51875;49.994;14.052;2022-10-22T04:26:43;98129.88;;;8.97;100.00
65276;BME280;51875;49.994;14.052;2022-10-22T04:27:59;98132.25;;;8.73;100.00
65276;BME280;51875;49.994;14.052;2022-10-22T04:29:15;98132.34;;;9.02;100.00
65276;BME280;51875;49.994;14.052;2022-10-22T04:30:30;98138.41;;;9.04;100.00
65276;BME280;51875;49.994;14.052;2022-10-22T04:31:46;98137.50;;;9.05;100.00
65276;BME280;51875;49.994;14.052;2022-10-22T04:33:01;98145.09;;;9.14;100.00
65276;BME280;51875;49.994;14.052;2022-10-22T04:34:18;98142.97;;;9.29;100.00
65276;BME280;51875;49.994;14.052;2022-10-22T04:35:37;98143.19;;;9.19;100.00
65276;BME280;51875;49.994;14.052;2022-10-22T04:36:53;98143.69;;;9.34;100.00
65276;BME280;51875;49.994;14.052;2022-10-22T04:38:08;98132.28;;;9.37;100.00
65276;BME280;51875;49.994;14.052;2022-10-22T04:39:24;98137.63;;;9.33;100.00
65276;BME280;51875;49.994;14.052;2022-10-22T04:40:40;98129.88;;;9.30;100.00
65276;BME280;51875;49.994;14.052;2022-10-22T04:41:56;98132.16;;;9.41;100.00
65276;BME280;51875;49.994;14.052;2022-10-22T04:43:11;98140.84;;;9.42;100.00
65276;BME280;51875;49.994;14.052;2022-10-22T04:44:27;98137.44;;;9.40;100.00
65276;BME280;51875;49.994;14.052;2022-10-22T04:45:43;98139.22;;;9.38;100.00
65276;BME280;51875;49.994;14.052;2022-10-22T04:46:58;98136.47;;;9.44;100.00
65276;BME280;51875;49.994;14.052;2022-10-22T04:48:14;98132.13;;;9.43;100.00
65276;BME280;51875;49.994;14.052;2022-10-22T04:49:29;98129.09;;;9.27;100.00
65276;BME280;51875;49.994;14.052;2022-10-22T04:50:45;98131.63;;;9.28;100.00
65276;BME280;51875;49.994;14.052;2022-10-22T04:52:00;98129.72;;;9.35;100.00
65276;BME280;51875;49.994;14.052;2022-10-22T04:53:16;98129.78;;;9.33;100.00
65276;BME280;51875;49.994;14.052;2022-10-22T04:54:32;98128.28;;;9.25;100.00
65276;BME280;51875;49.994;14.052;2022-10-22T04:55:47;98123.06;;;9.25;100.00
65276;BME280;51875;49.994;14.052;2022-10-22T04:57:03;98121.88;;;9.35;100.00
65276;BME280;51875;49.994;14.052;2022-10-22T04:58:18;98123.66;;;9.35;100.00
65276;BME280;51875;49.994;14.052;2022-10-22T04:59:34;98123.78;;;9.30;100.00
65276;BME280;51875;49.994;14.052;2022-10-22T05:00:50;98118.63;;;9.27;100.00
65276;BME280;51875;49.994;14.052;2022-10-22T05:02:05;98107.44;;;9.22;100.00
65276;BME280;51875;49.994;14.052;2022-10-22T05:03:23;98108.41;;;8.86;100.00
65276;BME280;51875;49.994;14.052;2022-10-22T05:04:39;98106.78;;;8.82;100.00
65276;BME280;51875;49.994;14.052;2022-10-22T05:06:00;98109.03;;;8.96;100.00
65276;BME280;51875;49.994;14.052;2022-10-22T05:07:15;98106.25;;;9.02;100.00
65276;BME280;51875;49.994;14.052;2022-10-22T05:08:31;98106.16;;;9.05;100.00
65276;BME280;51875;49.994;14.052;2022-10-22T05:09:47;98105.78;;;9.19;100.00
65276;BME280;51875;49.994;14.052;2022-10-22T05:11:16;98105.41;;;9.33;100.00
65276;BME280;51875;49.994;14.052;2022-10-22T05:12:32;98109.50;;;9.42;100.00
65276;BME280;51875;49.994;14.052;2022-10-22T05:13:49;98113.78;;;9.44;100.00
65276;BME280;51875;49.994;14.052;2022-10-22T05:15:06;98118.84;;;9.19;100.00
65276;BME280;51875;49.994;14.052;2022-10-22T05:16:22;98121.91;;;9.02;100.00
65276;BME280;51875;49.994;14.052;2022-10-22T05:17:37;98130.47;;;9.07;100.00
65276;BME280;51875;49.994;14.052;2022-10-22T05:18:53;98128.75;;;9.39;100.00
65276;BME280;51875;49.994;14.052;2022-10-22T05:20:09;98130.34;;;9.45;100.00
65276;BME280;51875;49.994;14.052;2022-10-22T05:21:25;98129.31;;;9.51;100.00
65276;BME280;51875;49.994;14.052;2022-10-22T05:22:41;98139.81;;;9.47;100.00
65276;BME280;51875;49.994;14.052;2022-10-22T05:23:57;98148.66;;;9.43;100.00
65276;BME280;51875;49.994;14.052;2022-10-22T05:25:14;98148.56;;;9.46;100.00
65276;BME280;51875;49.994;14.052;2022-10-22T05:26:30;98147.59;;;9.51;100.00
65276;BME280;51875;49.994;14.052;2022-10-22T05:27:48;98142.31;;;9.52;100.00
65276;BME280;51875;49.994;14.052;2022-10-22T05:29:04;98140.47;;;9.56;100.00
65276;BME280;51875;49.994;14.052;2022-10-22T05:30:20;98142.31;;;9.52;100.00
65276;BME280;51875;49.994;14.052;2022-10-22T05:31:38;98143.91;;;9.58;100.00
65276;BME280;51875;49.994;14.052;2022-10-22T05:32:53;98145.50;;;9.62;100.00
65276;BME280;51875;49.994;14.052;2022-10-22T05:34:09;98155.97;;;9.62;100.00
65276;BME280;51875;49.994;14.052;2022-10-22T05:35:25;98154.66;;;9.47;100.00
65276;BME280;51875;49.994;14.052;2022-10-22T05:36:41;98159.69;;;9.53;100.00
65276;BME280;51875;49.994;14.052;2022-10-22T05:38:00;98162.63;;;9.42;100.00
65276;BME280;51875;49.994;14.052;2022-10-22T05:39:15;98158.78;;;9.56;100.00
65276;BME280;51875;49.994;14.052;2022-10-22T05:40:31;98160.28;;;9.63;100.00
65276;BME280;51875;49.994;14.052;2022-10-22T05:41:47;98167.31;;;9.61;100.00
65276;BME280;51875;49.994;14.052;2022-10-22T05:43:02;98166.03;;;9.44;100.00
65276;BME280;51875;49.994;14.052;2022-10-22T05:44:18;98163.13;;;9.55;100.00
65276;BME280;51875;49.994;14.052;2022-10-22T05:45:37;98155.91;;;9.65;100.00
65276;BME280;51875;49.994;14.052;2022-10-22T05:46:53;98151.63;;;9.61;100.00
65276;BME280;51875;49.994;14.052;2022-10-22T05:48:09;98152.66;;;9.55;100.00
65276;BME280;51875;49.994;14.052;2022-10-22T05:49:24;98140.28;;;9.62;100.00
65276;BME280;51875;49.994;14.052;2022-10-22T05:50:40;98141.88;;;9.68;100.00
65276;BME280;51875;49.994;14.052;2022-10-22T05:51:55;98140.44;;;9.57;100.00
65276;BME280;51875;49.994;14.052;2022-10-22T05:53:11;98148.09;;;9.64;100.00
65276;BME280;51875;49.994;14.052;2022-10-22T05:54:26;98142.63;;;9.71;100.00
65276;BME280;51875;49.994;14.052;2022-10-22T05:55:42;98141.59;;;9.77;100.00
65276;BME280;51875;49.994;14.052;2022-10-22T05:56:58;98146.81;;;9.79;100.00
65276;BME280;51875;49.994;14.052;2022-10-22T05:58:13;98146.50;;;9.58;100.00
65276;BME280;51875;49.994;14.052;2022-10-22T05:59:29;98150.13;;;9.54;100.00
65276;BME280;51875;49.994;14.052;2022-10-22T06:00:45;98153.03;;;9.43;100.00
65276;BME280;51875;49.994;14.052;2022-10-22T06:02:00;98155.84;;;9.35;100.00
65276;BME280;51875;49.994;14.052;2022-10-22T06:03:16;98166.94;;;9.43;100.00
65276;BME280;51875;49.994;14.052;2022-10-22T06:04:31;98176.38;;;9.49;100.00
65276;BME280;51875;49.994;14.052;2022-10-22T06:05:47;98175.44;;;9.52;100.00
65276;BME280;51875;49.994;14.052;2022-10-22T06:07:02;98173.34;;;9.63;100.00
65276;BME280;51875;49.994;14.052;2022-10-22T06:08:18;98171.28;;;9.74;100.00
65276;BME280;51875;49.994;14.052;2022-10-22T06:09:35;98178.19;;;9.79;100.00
65276;BME280;51875;49.994;14.052;2022-10-22T06:10:51;98182.06;;;9.64;100.00
65276;BME280;51875;49.994;14.052;2022-10-22T06:12:06;98181.88;;;9.70;100.00
65276;BME280;51875;49.994;14.052;2022-10-22T06:13:25;98178.75;;;9.88;100.00
65276;BME280;51875;49.994;14.052;2022-10-22T06:14:40;98172.97;;;9.77;100.00
65276;BME280;51875;49.994;14.052;2022-10-22T06:15:56;98167.19;;;9.34;100.00
65276;BME280;51875;49.994;14.052;2022-10-22T06:17:12;98170.72;;;9.33;100.00
65276;BME280;51875;49.994;14.052;2022-10-22T06:18:27;98158.31;;;9.41;100.00
65276;BME280;51875;49.994;14.052;2022-10-22T06:19:43;98161.84;;;9.70;100.00
65276;BME280;51875;49.994;14.052;2022-10-22T06:21:14;98157.09;;;9.83;100.00
65276;BME280;51875;49.994;14.052;2022-10-22T06:22:29;98155.13;;;9.92;100.00
65276;BME280;51875;49.994;14.052;2022-10-22T06:23:45;98169.88;;;9.94;100.00
65276;BME280;51875;49.994;14.052;2022-10-22T06:25:00;98176.00;;;9.93;100.00
65276;BME280;51875;49.994;14.052;2022-10-22T06:26:17;98174.22;;;9.94;100.00
65276;BME280;51875;49.994;14.052;2022-10-22T06:27:33;98177.88;;;9.58;100.00
65276;BME280;51875;49.994;14.052;2022-10-22T06:28:49;98185.63;;;9.61;100.00
65276;BME280;51875;49.994;14.052;2022-10-22T06:30:09;98185.81;;;9.85;100.00
65276;BME280;51875;49.994;14.052;2022-10-22T06:31:25;98177.97;;;9.85;100.00
65276;BME280;51875;49.994;14.052;2022-10-22T06:32:44;98182.06;;;9.94;100.00
65276;BME280;51875;49.994;14.052;2022-10-22T06:34:00;98181.03;;;9.99;100.00
65276;BME280;51875;49.994;14.052;2022-10-22T06:37:18;98176.38;;;9.81;100.00
65276;BME280;51875;49.994;14.052;2022-10-22T06:38:34;98182.84;;;9.67;100.00
65276;BME280;51875;49.994;14.052;2022-10-22T06:39:50;98187.47;;;9.57;100.00
65276;BME280;51875;49.994;14.052;2022-10-22T06:41:18;98188.78;;;9.72;100.00
65276;BME280;51875;49.994;14.052;2022-10-22T06:42:37;98188.78;;;9.72;100.00
65276;BME280;51875;49.994;14.052;2022-10-22T06:43:52;98190.78;;;9.94;100.00
65276;BME280;51875;49.994;14.052;2022-10-22T06:45:17;98194.53;;;9.85;100.00
65276;BME280;51875;49.994;14.052;2022-10-22T06:46:32;98192.59;;;9.92;100.00
65276;BME280;51875;49.994;14.052;2022-10-22T06:47:51;98194.91;;;10.03;100.00
65276;BME280;51875;49.994;14.052;2022-10-22T06:49:12;98194.81;;;10.04;100.00
65276;BME280;51875;49.994;14.052;2022-10-22T06:50:38;98204.38;;;10.06;100.00
65276;BME280;51875;49.994;14.052;2022-10-22T06:51:59;98208.09;;;9.98;100.00
65276;BME280;51875;49.994;14.052;2022-10-22T06:53:18;98214.84;;;10.06;100.00
65276;BME280;51875;49.994;14.052;2022-10-22T06:54:37;98215.13;;;9.96;100.00
65276;BME280;51875;49.994;14.052;2022-10-22T06:55:52;98225.94;;;9.84;100.00
65276;BME280;51875;49.994;14.052;2022-10-22T06:57:08;98231.66;;;9.97;100.00
65276;BME280;51875;49.994;14.052;2022-10-22T06:58:24;98229.84;;;10.00;100.00
65276;BME280;51875;49.994;14.052;2022-10-22T06:59:39;98225.00;;;9.86;100.00
65276;BME280;51875;49.994;14.052;2022-10-22T07:01:02;98224.38;;;9.78;100.00
65276;BME280;51875;49.994;14.052;2022-10-22T07:02:19;98222.41;;;9.86;100.00
65276;BME280;51875;49.994;14.052;2022-10-22T07:03:35;98230.84;;;9.96;100.00
65276;BME280;51875;49.994;14.052;2022-10-22T07:04:51;98232.97;;;9.82;100.00
65276;BME280;51875;49.994;14.052;2022-10-22T07:06:09;98232.88;;;9.85;100.00
65276;BME280;51875;49.994;14.052;2022-10-22T07:07:25;98235.56;;;10.13;100.00
65276;BME280;51875;49.994;14.052;2022-10-22T07:08:41;98235.19;;;10.26;100.00
65276;BME280;51875;49.994;14.052;2022-10-22T07:09:57;98232.41;;;10.02;100.00
65276;BME280;51875;49.994;14.052;2022-10-22T07:11:18;98227.44;;;10.23;100.00
65276;BME280;51875;49.994;14.052;2022-10-22T07:12:35;98234.44;;;10.22;100.00